createdAt,value
2022-08-05T00:00:16.650Z,100898.28
2022-08-05T00:02:49.194Z,100903.66
2022-08-05T00:06:02.984Z,100872.09
2022-08-05T00:08:32.561Z,100858.13
2022-08-05T00:11:00.555Z,100859.03
2022-08-05T00:13:39.237Z,100868.28
2022-08-05T00:16:12.386Z,100861.69
2022-08-05T00:18:42.279Z,100850.78
2022-08-05T00:21:10.315Z,100852.25
2022-08-05T00:23:45.973Z,100862.03
2022-08-05T00:26:22.522Z,100870.72
2022-08-05T00:28:50.751Z,100872.25
2022-08-05T00:31:53.156Z,100880.50
2022-08-05T00:34:54.891Z,100893.44
2022-08-05T00:37:11.883Z,100895.16
2022-08-05T00:39:44.084Z,100908.97
2022-08-05T00:42:31.727Z,100911.59
2022-08-05T00:45:00.082Z,100921.03
2022-08-05T00:47:52.952Z,100923.25
2022-08-05T00:50:15.556Z,100921.44
2022-08-05T00:52:45.379Z,100918.69
2022-08-05T00:55:14.870Z,100909.00
2022-08-05T00:57:55.717Z,100904.19
2022-08-05T01:00:27.604Z,100906.75
2022-08-05T01:02:55.574Z,100900.94
2022-08-05T01:05:23.994Z,100894.94
2022-08-05T01:08:40.847Z,100893.13
2022-08-05T01:10:52.265Z,100905.28
2022-08-05T01:13:27.558Z,100911.19
2022-08-05T01:16:26.272Z,100891.41
2022-08-05T01:19:00.633Z,100864.09
2022-08-05T01:22:07.503Z,100860.94
2022-08-05T01:24:58.597Z,100871.25
2022-08-05T01:27:32.941Z,100880.13
2022-08-05T01:30:04.887Z,100879.50
2022-08-05T01:32:41.978Z,100878.25
2022-08-05T01:35:51.318Z,100872.94
2022-08-05T01:38:05.623Z,100871.25
2022-08-05T01:40:34.244Z,100865.53
2022-08-05T01:43:03.776Z,100867.06
2022-08-05T01:45:34.865Z,100873.28
2022-08-05T01:48:10.898Z,100885.78
2022-08-05T01:50:40.362Z,100878.09
2022-08-05T01:53:57.391Z,100885.72
2022-08-05T01:56:10.703Z,100886.22
2022-08-05T01:58:45.111Z,100898.34
2022-08-05T02:01:15.595Z,100895.91
2022-08-05T02:03:52.747Z,100891.25
2022-08-05T02:06:37.096Z,100892.88
2022-08-05T02:09:06.706Z,100886.03
2022-08-05T02:11:42.192Z,100892.53
2022-08-05T02:14:18.900Z,100901.19
2022-08-05T02:16:52.306Z,100901.78
2022-08-05T02:19:34.506Z,100906.34
2022-08-05T02:22:06.804Z,100911.56
2022-08-05T02:24:37.920Z,100911.44
2022-08-05T02:27:09.913Z,100915.91
2022-08-05T02:29:58.566Z,100910.78
2022-08-05T02:32:31.435Z,100918.00
2022-08-05T02:35:02.016Z,100913.91
2022-08-05T02:37:42.515Z,100910.75
2022-08-05T02:40:16.618Z,100912.91
2022-08-05T02:42:44.815Z,100913.78
2022-08-05T02:45:24.154Z,100923.22
2022-08-05T02:48:06.656Z,100918.66
2022-08-05T02:50:44.085Z,100920.47
2022-08-05T02:53:16.010Z,100925.84
2022-08-05T02:55:54.065Z,100942.25
2022-08-05T02:58:23.276Z,100954.59
2022-08-05T03:00:56.151Z,100952.91
2022-08-05T03:03:25.462Z,100954.38
2022-08-05T03:06:54.361Z,100949.28
2022-08-05T03:08:43.149Z,100932.03
2022-08-05T03:11:54.979Z,100940.72
2022-08-05T03:14:09.401Z,100944.34
2022-08-05T03:16:41.419Z,100944.56
2022-08-05T03:19:12.912Z,100944.78
2022-08-05T03:21:57.488Z,100947.75
2022-08-05T03:24:29.379Z,100948.38
2022-08-05T03:26:58.038Z,100945.59
2022-08-05T03:29:45.088Z,100935.28
2022-08-05T03:32:15.233Z,100934.56
2022-08-05T03:34:50.428Z,100929.88
2022-08-05T03:37:19.612Z,100934.50
2022-08-05T03:39:58.796Z,100929.81
2022-08-05T03:42:29.219Z,100929.19
2022-08-05T03:44:59.692Z,100915.88
2022-08-05T03:47:30.586Z,100894.53
2022-08-05T03:50:04.520Z,100892.84
2022-08-05T03:55:00.277Z,100895.94
2022-08-05T03:56:06.183Z,100899.00
2022-08-05T03:58:17.778Z,100898.69
2022-08-05T04:00:51.410Z,100890.25
2022-08-05T04:03:28.928Z,100879.63
2022-08-05T04:05:59.213Z,100878.50
2022-08-05T04:08:35.941Z,100885.63
2022-08-05T04:11:07.237Z,100875.31
2022-08-05T04:13:49.883Z,100872.38
2022-08-05T04:16:25.011Z,100865.88
2022-08-05T04:18:54.780Z,100862.97
2022-08-05T04:22:10.286Z,100870.84
2022-08-05T04:24:19.254Z,100885.78
2022-08-05T04:26:50.590Z,100895.69
2022-08-05T04:29:18.199Z,100897.19
2022-08-05T04:31:48.474Z,100881.91
2022-08-05T04:34:33.411Z,100877.38
2022-08-05T04:37:03.539Z,100887.94
2022-08-05T04:39:31.333Z,100887.25
2022-08-05T04:42:00.435Z,100882.00
2022-08-05T04:44:30.744Z,100882.25
2022-08-05T04:46:59.374Z,100877.31
2022-08-05T04:49:39.053Z,100887.78
2022-08-05T04:52:16.236Z,100883.25
2022-08-05T04:54:43.841Z,100891.22
2022-08-05T04:57:11.559Z,100898.06
2022-08-05T04:59:40.614Z,100903.00
2022-08-05T05:02:36.841Z,100902.25
2022-08-05T05:05:02.826Z,100912.69
2022-08-05T05:07:35.621Z,100922.84
2022-08-05T05:10:06.274Z,100925.00
2022-08-05T05:12:34.315Z,100921.38
2022-08-05T05:15:05.436Z,100906.84
2022-08-05T05:17:56.882Z,100905.25
2022-08-05T05:20:28.461Z,100910.81
2022-08-05T05:22:58.392Z,100917.34
2022-08-05T05:25:40.457Z,100925.69
2022-08-05T05:28:08.906Z,100923.53
2022-08-05T05:30:37.146Z,100919.00
2022-08-05T05:33:14.170Z,100923.75
2022-08-05T05:35:46.630Z,100934.97
2022-08-05T05:38:22.851Z,100929.41
2022-08-05T05:40:55.693Z,100933.44
2022-08-05T05:43:54.002Z,100943.34
2022-08-05T05:46:17.203Z,100957.63
2022-08-05T05:48:47.739Z,100951.94
2022-08-05T05:51:20.858Z,100943.38
2022-08-05T05:53:57.977Z,100940.41
2022-08-05T05:56:32.507Z,100936.44
2022-08-05T05:59:03.113Z,100931.72
2022-08-05T06:01:36.959Z,100942.53
2022-08-05T06:04:06.785Z,100947.84
2022-08-05T06:06:35.091Z,100934.81
2022-08-05T06:09:04.903Z,100928.53
2022-08-05T06:11:32.747Z,100940.03
2022-08-05T06:14:00.690Z,100933.72
2022-08-05T06:16:32.790Z,100938.69
2022-08-05T06:19:05.661Z,100948.47
2022-08-05T06:21:36.105Z,100960.28
2022-08-05T06:24:12.248Z,100964.78
2022-08-05T06:26:51.478Z,100970.13
2022-08-05T06:29:43.283Z,100967.66
2022-08-05T06:32:26.245Z,100981.66
2022-08-05T06:34:56.702Z,100977.72
2022-08-05T06:37:56.370Z,100968.91
2022-08-05T06:40:18.237Z,100963.44
2022-08-05T06:42:51.652Z,100970.81
2022-08-05T06:45:20.729Z,100963.88
2022-08-05T06:48:37.246Z,100970.59
2022-08-05T06:50:36.724Z,100964.91
2022-08-05T06:53:19.631Z,100957.28
2022-08-05T06:55:53.315Z,100967.09
2022-08-05T06:58:35.104Z,100971.47
2022-08-05T07:01:05.413Z,100968.31
2022-08-05T07:03:33.497Z,100973.63
2022-08-05T07:06:05.831Z,100976.78
2022-08-05T07:08:42.579Z,100975.09
2022-08-05T07:11:15.211Z,100976.31
2022-08-05T07:14:01.118Z,100969.88
2022-08-05T07:17:59.722Z,100962.50
2022-08-05T07:22:28.812Z,100973.63
2022-08-05T07:24:59.580Z,100972.88
2022-08-05T07:27:57.949Z,100977.34
2022-08-05T07:30:32.544Z,100973.75
2022-08-05T07:33:01.442Z,100973.75
2022-08-05T07:36:02.247Z,100979.34
2022-08-05T07:38:32.549Z,100978.50
2022-08-05T07:41:17.184Z,100983.75
2022-08-05T07:43:51.836Z,100979.03
2022-08-05T07:46:25.121Z,100970.72
2022-08-05T07:49:02.529Z,100976.50
2022-08-05T07:51:48.625Z,100988.94
2022-08-05T07:54:22.053Z,100982.19
2022-08-05T07:57:13.611Z,100988.41
2022-08-05T07:59:42.996Z,100987.91
2022-08-05T08:02:16.203Z,100996.13
2022-08-05T08:04:45.466Z,100997.91
2022-08-05T08:07:13.562Z,100998.03
2022-08-05T08:09:41.253Z,101004.66
2022-08-05T08:12:30.561Z,100993.16
2022-08-05T08:15:02.667Z,101002.50
2022-08-05T08:17:31.495Z,101003.38
2022-08-05T08:20:22.066Z,100997.28
2022-08-05T08:22:52.042Z,100993.25
2022-08-05T08:25:26.943Z,101004.84
2022-08-05T08:28:07.390Z,101008.88
2022-08-05T08:30:49.633Z,101001.63
2022-08-05T08:33:17.709Z,100991.81
2022-08-05T08:35:52.946Z,101001.31
2022-08-05T08:38:35.108Z,101001.72
2022-08-05T08:41:06.459Z,101001.00
2022-08-05T08:45:19.669Z,101006.44
2022-08-05T08:46:24.954Z,101010.78
2022-08-05T08:49:06.134Z,101005.38
2022-08-05T08:52:03.048Z,101002.44
2022-08-05T08:54:32.315Z,101009.50
2022-08-05T08:57:00.445Z,101009.63
2022-08-05T08:59:33.847Z,101012.88
2022-08-05T09:02:08.546Z,101018.22
2022-08-05T09:04:58.093Z,101014.41
2022-08-05T09:07:28.967Z,101019.31
2022-08-05T09:10:08.118Z,101025.06
2022-08-05T09:12:36.149Z,101019.06
2022-08-05T09:15:06.406Z,101026.13
2022-08-05T09:17:40.516Z,101039.91
2022-08-05T09:20:10.744Z,101035.69
2022-08-05T09:23:19.721Z,101029.91
2022-08-05T09:26:01.375Z,101041.59
2022-08-05T09:28:34.260Z,101038.50
2022-08-05T09:31:23.442Z,101034.00
2022-08-05T09:33:56.446Z,101034.59
2022-08-05T09:36:27.322Z,101035.97
2022-08-05T09:39:02.380Z,101041.31
2022-08-05T09:41:33.151Z,101042.72
2022-08-05T09:44:06.768Z,101054.81
2022-08-05T09:46:35.510Z,101047.34
2022-08-05T09:49:19.051Z,101061.56
2022-08-05T09:51:49.637Z,101058.50
2022-08-05T09:54:29.081Z,101058.03
2022-08-05T09:56:57.582Z,101062.38
2022-08-05T09:59:28.985Z,101054.63
2022-08-05T10:02:02.851Z,101049.84
2022-08-05T10:04:38.439Z,101060.28
2022-08-05T10:07:20.175Z,101047.84
2022-08-05T10:10:14.250Z,101055.84
2022-08-05T10:12:50.428Z,101058.28
2022-08-05T10:15:23.739Z,101061.09
2022-08-05T10:18:12.632Z,101054.44
2022-08-05T10:20:47.649Z,101044.50
2022-08-05T10:23:34.495Z,101046.25
2022-08-05T10:26:07.052Z,101040.38
2022-08-05T10:28:36.547Z,101055.34
2022-08-05T10:32:50.648Z,101055.28
2022-08-05T10:33:54.096Z,101058.66
2022-08-05T10:36:26.124Z,101059.41
2022-08-05T10:39:00.570Z,101053.47
2022-08-05T10:41:46.427Z,101060.75
2022-08-05T10:44:18.575Z,101060.81
2022-08-05T10:46:50.664Z,101062.75
2022-08-05T10:49:26.770Z,101064.88
2022-08-05T10:52:00.301Z,101070.78
2022-08-05T10:54:56.378Z,101066.84
2022-08-05T10:57:29.473Z,101071.78
2022-08-05T11:00:19.725Z,101067.31
2022-08-05T11:03:10.124Z,101077.25
2022-08-05T11:06:15.866Z,101067.75
2022-08-05T11:09:18.630Z,101085.50
2022-08-05T11:11:54.073Z,101073.47
2022-08-05T11:14:57.590Z,101070.94
2022-08-05T11:17:57.478Z,101084.09
2022-08-05T11:20:51.042Z,101097.47
2022-08-05T11:24:05.570Z,101088.72
2022-08-05T11:26:28.732Z,101101.72
2022-08-05T11:29:12.006Z,101101.56
2022-08-05T11:31:51.920Z,101107.03
2022-08-05T11:34:37.444Z,101111.13
2022-08-05T11:38:14.595Z,101119.50
2022-08-05T11:40:00.570Z,101102.25
2022-08-05T11:42:33.013Z,101109.16
2022-08-05T11:45:14.183Z,101118.06
2022-08-05T11:47:50.680Z,101124.25
2022-08-05T11:50:22.603Z,101119.84
2022-08-05T11:52:54.412Z,101113.09
2022-08-05T11:55:31.762Z,101130.38
2022-08-05T11:58:08.639Z,101121.81
2022-08-05T12:00:39.085Z,101119.72
2022-08-05T12:03:29.480Z,101124.66
2022-08-05T12:06:05.896Z,101137.22
2022-08-05T12:08:48.022Z,101135.97
2022-08-05T12:11:20.571Z,101164.22
2022-08-05T12:13:59.404Z,101138.56
2022-08-05T12:16:29.142Z,101135.03
2022-08-05T12:18:57.631Z,101154.50
2022-08-05T12:21:30.271Z,101142.91
2022-08-05T12:24:04.336Z,101149.81
2022-08-05T12:26:33.490Z,101157.88
2022-08-05T12:29:03.457Z,101170.00
2022-08-05T12:31:43.663Z,101171.84
2022-08-05T12:34:21.467Z,101170.41
2022-08-05T12:36:53.208Z,101173.25
2022-08-05T12:39:21.409Z,101196.66
2022-08-05T12:41:49.055Z,101186.00
2022-08-05T12:44:33.146Z,101189.28
2022-08-05T12:47:02.307Z,101200.63
2022-08-05T12:50:04.221Z,101207.81
2022-08-05T12:52:33.924Z,101204.09
2022-08-05T12:55:22.458Z,101216.00
2022-08-05T12:58:52.684Z,101215.59
2022-08-05T13:02:01.454Z,101221.22
2022-08-05T13:03:33.512Z,101209.75
2022-08-05T13:06:01.408Z,101214.28
2022-08-05T13:08:30.109Z,101227.78
2022-08-05T13:11:00.910Z,101224.34
2022-08-05T13:14:06.342Z,101216.44
2022-08-05T13:16:19.416Z,101237.31
2022-08-05T13:18:52.442Z,101221.25
2022-08-05T13:21:23.193Z,101238.16
2022-08-05T13:23:56.274Z,101240.59
2022-08-05T13:26:30.112Z,101256.69
2022-08-05T13:28:59.255Z,101261.22
2022-08-05T13:31:34.124Z,101261.31
2022-08-05T13:34:24.102Z,101259.25
2022-08-05T13:36:53.490Z,101264.41
2022-08-05T13:40:14.549Z,101264.13
2022-08-05T13:42:15.020Z,101274.75
2022-08-05T13:44:45.428Z,101263.53
2022-08-05T13:47:35.492Z,101267.00
2022-08-05T13:50:04.751Z,101277.06
2022-08-05T13:52:35.336Z,101280.72
2022-08-05T13:55:07.382Z,101291.13
2022-08-05T13:57:50.702Z,101285.53
2022-08-05T14:00:26.968Z,101300.22
2022-08-05T14:02:57.096Z,101286.41
2022-08-05T14:05:29.324Z,101291.94
2022-08-05T14:08:20.826Z,101291.66
2022-08-05T14:11:03.190Z,101296.84
2022-08-05T14:13:42.538Z,101295.59
2022-08-05T14:16:11.792Z,101280.50
2022-08-05T14:18:46.483Z,101288.47
2022-08-05T14:22:08.435Z,101315.63
2022-08-05T14:24:01.749Z,101313.84
2022-08-05T14:26:35.798Z,101319.97
2022-08-05T14:29:14.039Z,101318.72
2022-08-05T14:32:03.971Z,101348.66
2022-08-05T14:34:35.056Z,101345.88
2022-08-05T14:37:03.259Z,101337.53
2022-08-05T14:39:31.808Z,101357.75
2022-08-05T14:42:19.437Z,101333.75
2022-08-05T14:44:49.071Z,101323.63
2022-08-05T14:47:16.760Z,101333.34
2022-08-05T14:50:17.360Z,101335.88
2022-08-05T14:52:52.900Z,101331.66
2022-08-05T14:55:21.484Z,101345.22
2022-08-05T14:57:54.380Z,101352.19
2022-08-05T15:00:27.977Z,101347.38
2022-08-05T15:02:57.192Z,101360.94
2022-08-05T15:05:29.803Z,101341.59
2022-08-05T15:08:58.104Z,101353.16
2022-08-05T15:11:03.711Z,101351.03
2022-08-05T15:13:46.176Z,101354.19
2022-08-05T15:16:17.828Z,101358.22
2022-08-05T15:18:47.026Z,101354.13
2022-08-05T15:21:16.231Z,101361.22
2022-08-05T15:23:48.791Z,101355.59
2022-08-05T15:26:17.427Z,101369.22
2022-08-05T15:28:59.910Z,101361.03
2022-08-05T15:31:34.797Z,101365.19
2022-08-05T15:34:18.486Z,101372.47
2022-08-05T15:36:48.549Z,101379.00
2022-08-05T15:40:59.594Z,101362.81
2022-08-05T15:42:49.982Z,101370.50
2022-08-05T15:44:51.436Z,101370.00
2022-08-05T15:47:19.014Z,101363.69
2022-08-05T15:49:59.129Z,101366.34
2022-08-05T15:52:29.203Z,101372.28
2022-08-05T15:55:16.751Z,101363.50
2022-08-05T15:57:45.135Z,101360.31
2022-08-05T16:00:13.701Z,101369.19
2022-08-05T16:02:44.633Z,101362.13
2022-08-05T16:05:12.517Z,101362.78
2022-08-05T16:07:46.505Z,101365.19
2022-08-05T16:10:14.363Z,101371.31
2022-08-05T16:12:42.368Z,101367.09
2022-08-05T16:15:10.906Z,101366.38
2022-08-05T16:17:57.432Z,101390.13
2022-08-05T16:20:25.908Z,101372.78
2022-08-05T16:22:57.400Z,101377.34
2022-08-05T16:25:34.078Z,101382.94
2022-08-05T16:28:06.014Z,101382.97
2022-08-05T16:30:35.989Z,101399.19
2022-08-05T16:33:04.039Z,101384.59
2022-08-05T16:35:33.610Z,101377.81
2022-08-05T16:38:18.834Z,101386.06
2022-08-05T16:40:59.732Z,101383.41
2022-08-05T16:43:30.100Z,101394.59
2022-08-05T16:46:04.703Z,101389.97
2022-08-05T16:48:37.423Z,101396.75
2022-08-05T16:51:09.709Z,101389.56
2022-08-05T16:54:05.064Z,101394.06
2022-08-05T16:56:29.098Z,101394.75
2022-08-05T16:58:57.449Z,101405.06
2022-08-05T17:01:25.289Z,101405.97
2022-08-05T17:03:53.260Z,101402.84
2022-08-05T17:06:24.730Z,101412.25
2022-08-05T17:08:54.650Z,101409.59
2022-08-05T17:11:25.363Z,101420.47
2022-08-05T17:14:00.420Z,101423.16
2022-08-05T17:16:36.415Z,101412.94
2022-08-05T17:19:07.836Z,101422.16
2022-08-05T17:21:39.690Z,101416.97
2022-08-05T17:24:19.458Z,101423.88
2022-08-05T17:26:58.852Z,101423.09
2022-08-05T17:29:33.682Z,101437.63
2022-08-05T17:32:11.521Z,101434.91
2022-08-05T17:34:44.141Z,101438.28
2022-08-05T17:37:29.435Z,101437.81
2022-08-05T17:40:00.980Z,101437.00
2022-08-05T17:42:30.171Z,101454.88
2022-08-05T17:45:00.005Z,101443.44
2022-08-05T17:47:28.055Z,101445.34
2022-08-05T17:50:03.958Z,101444.28
2022-08-05T17:52:32.531Z,101459.22
2022-08-05T17:55:03.004Z,101452.41
2022-08-05T17:57:30.800Z,101481.22
2022-08-05T18:00:05.050Z,101458.41
2022-08-05T18:02:34.104Z,101467.25
2022-08-05T18:05:06.356Z,101474.06
2022-08-05T18:07:41.193Z,101478.59
2022-08-05T18:10:13.978Z,101478.59
2022-08-05T18:12:48.337Z,101479.75
2022-08-05T18:15:16.008Z,101484.13
2022-08-05T18:17:59.134Z,101484.31
2022-08-05T18:20:32.124Z,101483.03
2022-08-05T18:23:08.713Z,101490.53
2022-08-05T18:25:39.516Z,101501.78
2022-08-05T18:28:12.380Z,101507.25
2022-08-05T18:30:44.048Z,101510.47
2022-08-05T18:33:13.511Z,101513.88
2022-08-05T18:35:59.952Z,101529.72
2022-08-05T18:38:30.559Z,101527.34
2022-08-05T18:41:55.982Z,101533.19
2022-08-05T18:43:48.592Z,101531.88
2022-08-05T18:46:19.915Z,101533.28
2022-08-05T18:48:51.950Z,101527.94
2022-08-05T18:52:04.626Z,101534.50
2022-08-05T18:54:25.304Z,101537.16
2022-08-05T18:56:54.321Z,101547.66
2022-08-05T18:59:42.966Z,101549.00
2022-08-05T19:02:11.467Z,101547.28
2022-08-05T19:05:02.642Z,101554.31
2022-08-05T19:07:45.959Z,101562.28
2022-08-05T19:10:14.693Z,101554.50
2022-08-05T19:12:44.120Z,101563.59
2022-08-05T19:15:56.648Z,101563.97
2022-08-05T19:18:10.288Z,101564.22
2022-08-05T19:20:43.560Z,101563.88
2022-08-05T19:24:03.861Z,101561.22
2022-08-05T19:26:03.130Z,101572.19
2022-08-05T19:28:32.940Z,101581.19
2022-08-05T19:31:01.348Z,101573.84
2022-08-05T19:33:36.409Z,101583.69
2022-08-05T19:36:06.224Z,101585.00
2022-08-05T19:38:35.461Z,101589.72
2022-08-05T19:41:07.339Z,101595.44
2022-08-05T19:44:05.805Z,101601.00
2022-08-05T19:46:29.763Z,101603.22
2022-08-05T19:49:01.291Z,101614.63
2022-08-05T19:52:05.949Z,101615.25
2022-08-05T19:54:25.474Z,101616.81
2022-08-05T19:56:58.856Z,101628.66
2022-08-05T19:59:56.536Z,101631.66
2022-08-05T20:02:17.600Z,101640.03
2022-08-05T20:04:45.778Z,101637.91
2022-08-05T20:07:14.131Z,101636.88
2022-08-05T20:09:53.619Z,101642.59
2022-08-05T20:12:23.506Z,101639.16
2022-08-05T20:14:53.250Z,101650.06
2022-08-05T20:17:23.439Z,101653.03
2022-08-05T20:19:57.370Z,101656.63
2022-08-05T20:22:27.044Z,101653.34
2022-08-05T20:24:55.944Z,101662.94
2022-08-05T20:27:27.292Z,101669.09
2022-08-05T20:30:12.467Z,101670.41
2022-08-05T20:32:45.009Z,101676.41
2022-08-05T20:35:13.213Z,101680.47
2022-08-05T20:38:06.806Z,101679.34
2022-08-05T20:40:30.380Z,101682.59
2022-08-05T20:43:00.456Z,101682.13
2022-08-05T20:45:55.831Z,101694.75
2022-08-05T20:48:17.163Z,101689.72
2022-08-05T20:50:46.786Z,101700.00
2022-08-05T20:53:16.352Z,101705.28
2022-08-05T20:56:08.849Z,101700.88
2022-08-05T20:58:37.195Z,101697.94
2022-08-05T21:01:06.384Z,101702.94
2022-08-05T21:03:34.962Z,101705.16
2022-08-05T21:06:02.770Z,101701.66
2022-08-05T21:08:42.306Z,101702.28
2022-08-05T21:11:12.554Z,101708.75
2022-08-05T21:13:56.479Z,101704.53
2022-08-05T21:16:30.063Z,101700.69
2022-08-05T21:19:00.286Z,101708.22
2022-08-05T21:21:39.130Z,101710.47
2022-08-05T21:24:12.736Z,101715.75
2022-08-05T21:26:41.334Z,101724.34
2022-08-05T21:29:12.517Z,101724.47
2022-08-05T21:31:45.916Z,101727.84
2022-08-05T21:34:15.730Z,101725.47
2022-08-05T21:36:43.337Z,101729.50
2022-08-05T21:39:16.828Z,101725.19
2022-08-05T21:41:52.737Z,101729.22
2022-08-05T21:44:27.110Z,101732.06
2022-08-05T21:46:58.283Z,101732.44
2022-08-05T21:49:58.545Z,101733.97
2022-08-05T21:52:23.004Z,101732.38
2022-08-05T21:54:55.375Z,101732.38
2022-08-05T21:57:32.102Z,101735.28
2022-08-05T22:00:10.749Z,101730.56
2022-08-05T22:02:41.769Z,101738.31
2022-08-05T22:05:10.873Z,101742.00
2022-08-05T22:07:40.469Z,101741.03
2022-08-05T22:10:26.903Z,101737.34
2022-08-05T22:12:55.307Z,101740.66
2022-08-05T22:16:00.482Z,101746.47
2022-08-05T22:18:14.969Z,101744.69
2022-08-05T22:20:42.952Z,101747.94
2022-08-05T22:24:01.694Z,101740.03
2022-08-05T22:26:34.643Z,101751.25
2022-08-05T22:29:03.123Z,101747.78
2022-08-05T22:31:31.568Z,101754.28
2022-08-05T22:34:25.684Z,101754.63
2022-08-05T22:36:58.525Z,101765.06
2022-08-05T22:39:30.966Z,101767.88
2022-08-05T22:42:10.963Z,101761.84
2022-08-05T22:44:40.839Z,101768.78
2022-08-05T22:47:11.826Z,101773.31
2022-08-05T22:50:19.698Z,101766.69
2022-08-05T22:52:32.303Z,101772.75
2022-08-05T22:55:02.483Z,101781.66
2022-08-05T22:57:36.401Z,101780.03
2022-08-05T23:00:07.851Z,101773.16
2022-08-05T23:02:39.899Z,101781.34
2022-08-05T23:05:15.814Z,101787.59
2022-08-05T23:07:45.121Z,101787.25
2022-08-05T23:10:16.352Z,101789.34
2022-08-05T23:12:48.136Z,101797.34
2022-08-05T23:15:19.712Z,101795.75
2022-08-05T23:18:00.876Z,101792.16
2022-08-05T23:20:32.410Z,101791.50
2022-08-05T23:23:00.180Z,101791.69
2022-08-05T23:25:51.408Z,101799.59
2022-08-05T23:28:18.619Z,101795.13
2022-08-05T23:30:52.827Z,101813.66
2022-08-05T23:34:02.605Z,101805.06
2022-08-05T23:36:11.193Z,101812.34
2022-08-05T23:38:41.807Z,101804.84
2022-08-05T23:41:10.725Z,101808.38
2022-08-05T23:44:06.284Z,101811.94
2022-08-05T23:46:26.487Z,101813.84
2022-08-05T23:48:59.876Z,101814.72
2022-08-05T23:51:54.099Z,101810.63
2022-08-05T23:54:26.056Z,101815.97
2022-08-05T23:56:55.799Z,101818.66
